Time;durP1;ratioP1;P1;durP2;ratioP2;P2;SDS_P1;SDS_P2;PMS_P1;PMS_P2;Temp;Humidity;BMP_temperature;BMP_pressure;BME280_temperature;BME280_humidity;BME280_pressure;Samples;Min_cycle;Max_cycle;Signal;HPM_P1;HPM_P2
2022/07/27 00:07:55;;;;;;;19.50;16.10;;;;;;;16.56;76.78;98411.36;432227;1273;108846;-41
2022/07/27 00:18:03;;;;;;;25.50;16.30;;;;;;;16.54;76.84;98411.84;432470;1272;95286;-41
2022/07/27 00:28:10;;;;;;;22.90;18.10;;;;;;;16.45;77.03;98406.27;433873;1265;109657;-43
2022/07/27 00:38:17;;;;;;;18.80;15.20;;;;;;;16.37;76.99;98411.86;433796;1266;109082;-42
2022/07/27 00:48:24;;;;;;;21.20;15.90;;;;;;;16.26;77.28;98413.82;433396;1266;96137;-42
2022/07/27 00:58:32;;;;;;;;;;;;;;;16.08;77.34;98421.48;433642;1265;109778;-44
2022/07/27 01:08:41;;;;;;;17.60;13.60;;;;;;;16.07;77.58;98419.88;435208;1266;109154;-42
2022/07/27 01:18:47;;;;;;;20.30;16.00;;;;;;;15.99;77.45;98431.80;433703;1266;96202;-41
2022/07/27 01:28:58;;;;;;;17.60;13.50;;;;;;;15.83;77.60;98446.33;434095;1266;108999;-40
2022/07/27 01:39:06;;;;;;;15.30;11.90;;;;;;;15.77;77.76;98443.34;433681;1267;96139;-45
2022/07/27 01:49:14;;;;;;;22.10;13.30;;;;;;;15.73;77.83;98441.96;433812;1265;109959;-43
2022/07/27 01:59:22;;;;;;;18.70;12.30;;;;;;;15.49;77.61;98442.94;434049;1266;108810;-41
2022/07/27 02:09:29;;;;;;;16.20;10.40;;;;;;;15.32;77.92;98445.21;434171;1266;95748;-41
2022/07/27 02:19:37;;;;;;;14.50;8.30;;;;;;;15.18;78.08;98445.20;434185;1266;110411;-41
2022/07/27 02:29:44;;;;;;;13.80;7.70;;;;;;;15.20;78.25;98449.04;433991;1267;107720;-43
2022/07/27 02:39:52;;;;;;;13.20;7.50;;;;;;;15.10;78.30;98454.55;434186;1267;96185;-43
2022/07/27 02:49:58;;;;;;;8.60;6.60;;;;;;;15.05;78.46;98464.23;434088;1266;108969;-44
2022/07/27 03:00:08;;;;;;;8.20;6.10;;;;;;;15.00;78.51;98475.89;434190;1266;95431;-44
2022/07/27 03:10:15;;;;;;;12.50;7.50;;;;;;;15.12;78.75;98487.73;434154;1267;109450;-44
2022/07/27 03:20:23;;;;;;;10.20;6.30;;;;;;;15.22;78.57;98499.11;435001;1266;108776;-41
2022/07/27 03:30:30;;;;;;;13.60;7.60;;;;;;;15.08;78.31;98500.35;434312;1266;96151;-42
2022/07/27 03:40:38;;;;;;;8.30;6.40;;;;;;;14.99;78.44;98502.13;434305;1266;109772;-42
2022/07/27 03:50:45;;;;;;;12.80;7.70;;;;;;;15.01;78.64;98509.17;434195;1266;108661;-43
2022/07/27 04:00:53;;;;;;;10.00;7.00;;;;;;;15.08;78.61;98518.55;434116;1267;97547;-42
2022/07/27 04:11:00;;;;;;;10.60;7.40;;;;;;;15.21;78.63;98531.06;434188;1266;109083;-42
2022/07/27 04:21:07;;;;;;;9.90;7.20;;;;;;;15.36;78.78;98524.66;433876;1266;95406;-42
2022/07/27 04:31:15;;;;;;;9.00;7.50;;;;;;;15.58;78.89;98519.66;434322;1266;108743;-42
2022/07/27 04:41:23;;;;;;;7.30;6.60;;;;;;;15.81;78.78;98511.75;433877;1267;108868;-42
2022/07/27 04:51:36;;;;;;;11.10;7.00;;;;;;;16.39;78.81;98517.24;433796;1266;96131;-43
2022/07/27 05:01:43;;;;;;;12.30;6.80;;;;;;;17.76;78.69;98515.70;433572;1266;109560;-43
2022/07/27 05:11:51;;;;;;;8.00;5.00;;;;;;;19.67;77.40;98515.94;434441;1266;108732;-41
2022/07/27 05:21:58;;;;;;;6.30;4.60;;;;;;;20.63;75.12;98519.90;434322;1267;109534;-41
2022/07/27 05:32:06;;;;;;;4.40;3.50;;;;;;;20.58;75.14;98525.63;433648;1266;440656;-41
2022/07/27 05:42:14;;;;;;;7.90;4.00;;;;;;;21.57;74.01;98527.72;434298;1265;96217;-41
2022/07/27 05:52:21;;;;;;;5.90;3.80;;;;;;;20.74;72.05;98548.47;434215;1266;109625;-41
2022/07/27 06:02:30;;;;;;;7.70;4.00;;;;;;;19.89;72.18;98559.44;433898;1266;108736;-41
2022/07/27 06:22:47;;;;;;;10.00;3.70;;;;;;;20.71;72.27;98568.70;434129;1266;96182;-41
2022/07/27 06:32:54;;;;;;;4.20;2.40;;;;;;;21.59;71.45;98561.42;434105;1266;110196;-41
2022/07/27 06:43:02;;;;;;;4.40;2.20;;;;;;;21.02;69.21;98561.13;433935;1265;108827;-41
2022/07/27 06:53:10;;;;;;;7.00;2.30;;;;;;;21.67;69.45;98563.45;434083;1266;108862;-41
2022/07/27 07:03:17;;;;;;;4.90;2.20;;;;;;;21.97;67.33;98566.52;433871;1266;96128;-42
2022/07/27 07:13:25;;;;;;;3.00;2.10;;;;;;;21.38;66.33;98562.20;433085;1265;96086;-41
2022/07/27 07:23:32;;;;;;;5.00;2.10;;;;;;;21.55;66.70;98567.09;433894;1266;108729;-41
2022/07/27 07:33:39;;;;;;;6.90;1.60;;;;;;;21.94;66.05;98568.27;434083;1264;108819;-41
2022/07/27 07:43:47;;;;;;;8.80;1.30;;;;;;;21.91;64.51;98564.83;433971;1267;108778;-41
2022/07/27 07:53:54;;;;;;;5.70;1.40;;;;;;;22.30;63.92;98580.30;434102;1266;96156;-41
2022/07/27 08:04:01;;;;;;;3.10;1.50;;;;;;;22.27;63.22;98586.23;434221;1265;96916;-42
2022/07/27 08:14:09;;;;;;;3.00;1.60;;;;;;;21.96;62.27;98588.72;433992;1266;109708;-41
2022/07/27 08:24:17;;;;;;;5.90;1.40;;;;;;;21.88;62.42;98592.67;435559;1265;108529;-41
2022/07/27 08:34:24;;;;;;;1.90;1.70;;;;;;;21.94;62.04;98596.82;434448;1267;108791;-41
2022/07/27 08:44:31;;;;;;;3.20;1.70;;;;;;;21.89;62.13;98600.86;434219;1266;97235;-41
2022/07/27 08:54:41;;;;;;;5.70;1.80;;;;;;;22.45;62.46;98587.83;433818;1267;96147;-40
2022/07/27 09:04:49;;;;;;;5.20;1.80;;;;;;;23.05;62.28;98588.27;433964;1267;110252;-40
2022/07/27 09:15:04;;;;;;;4.80;1.70;;;;;;;23.64;61.35;98598.96;433909;1267;108774;-41
2022/07/27 09:25:12;;;;;;;1.90;1.20;;;;;;;23.75;60.10;98589.50;434045;1266;108772;-41
2022/07/27 09:35:22;;;;;;;2.00;1.50;;;;;;;23.88;59.19;98568.64;434187;1266;96981;-41
2022/07/27 09:45:28;;;;;;;2.50;1.60;;;;;;;23.95;58.94;98572.41;434107;1267;95405;-41
2022/07/27 10:05:46;;;;;;;2.80;1.30;;;;;;;24.17;57.31;98581.64;434492;1265;107864;-42
2022/07/27 10:15:52;;;;;;;3.20;1.70;;;;;;;24.69;56.71;98582.10;434131;1267;109361;-42
2022/07/27 10:26:27;;;;;;;1.50;1.40;;;;;;;24.88;55.66;98575.34;434327;1267;97920;-43
2022/07/27 10:36:51;;;;;;;2.60;1.10;;;;;;;24.99;55.09;98582.17;434061;1267;97513;-42
2022/07/27 10:47:00;;;;;;;3.10;1.50;;;;;;;25.07;54.97;98587.86;434203;1267;111071;-42
2022/07/27 10:57:07;;;;;;;3.60;1.30;;;;;;;25.21;54.71;98582.30;434090;1267;108816;-42
2022/07/27 11:07:16;;;;;;;2.70;1.40;;;;;;;25.63;54.40;98587.24;433554;1267;97923;-42
2022/07/27 11:17:48;;;;;;;5.70;2.60;;;;;;;25.63;53.23;98585.79;434140;1266;97453;-41
2022/07/27 11:38:13;;;;;;;2.50;1.50;;;;;;;25.43;52.57;98572.97;434178;1265;97875;-41
2022/07/27 11:48:20;;;;;;;1.80;1.20;;;;;;;25.80;51.73;98558.91;433895;1267;97508;-41
2022/07/27 11:58:28;;;;;;;3.20;1.50;;;;;;;25.90;51.42;98550.89;434353;1266;98069;-40
2022/07/27 12:08:35;;;;;;;2.10;1.20;;;;;;;25.70;51.05;98546.04;433831;1267;108871;-41
2022/07/27 12:18:46;;;;;;;3.80;1.00;;;;;;;25.72;51.16;98539.07;434019;1267;97977;-41
2022/07/27 12:29:05;;;;;;;4.20;1.50;;;;;;;26.19;50.06;98527.23;434022;1267;97887;-41
2022/07/27 13:09:46;;;;;;;;;;;;;;;25.92;48.53;98520.88;433994;1267;97917;-40
2022/07/27 13:20:11;;;;;;;7.90;1.90;;;;;;;24.73;49.11;98553.28;434169;1267;110775;-41
2022/07/27 13:30:19;;;;;;;5.70;2.30;;;;;;;22.78;51.64;98562.86;433426;1268;108228;-40
2022/07/27 13:40:27;;;;;;;3.00;1.70;;;;;;;22.43;54.18;98577.66;433593;1267;97914;-41
2022/07/27 13:50:34;;;;;;;4.40;2.30;;;;;;;22.55;55.30;98567.13;433897;1268;97917;-41
2022/07/27 14:00:41;;;;;;;2.50;2.30;;;;;;;22.58;55.83;98562.39;433981;1267;111278;-42
2022/07/27 14:10:49;;;;;;;6.20;2.10;;;;;;;22.25;56.84;98560.15;434080;1267;108736;-40
2022/07/27 14:20:55;;;;;;;9.50;2.40;;;;;;;22.31;57.21;98554.58;434195;1268;97878;-40
2022/07/27 14:31:05;;;;;;;5.30;1.80;;;;;;;22.51;57.21;98555.91;433944;1266;98583;-40
2022/07/27 14:41:13;;;;;;;3.80;1.90;;;;;;;22.43;57.15;98557.40;434078;1268;110882;-40
2022/07/27 14:51:20;;;;;;;3.80;2.00;;;;;;;22.35;57.22;98552.31;434156;1267;108690;-40
2022/07/27 15:01:28;;;;;;;3.50;1.70;;;;;;;22.15;57.31;98553.23;434066;1266;97515;-41
2022/07/27 15:11:36;;;;;;;4.60;2.60;;;;;;;21.94;57.50;98558.83;433970;1268;97907;-42
2022/07/27 15:21:45;;;;;;;5.60;2.70;;;;;;;21.76;57.71;98568.66;434188;1267;111161;-42
2022/07/27 15:31:53;;;;;;;6.00;2.10;;;;;;;21.59;58.42;98565.95;434296;1267;107644;-41
2022/07/27 15:42:01;;;;;;;4.00;2.40;;;;;;;21.40;59.66;98559.58;434248;1267;98198;-41
2022/07/27 15:52:07;;;;;;;6.70;2.60;;;;;;;21.31;60.75;98544.70;433594;1267;111044;-43
2022/07/27 16:02:14;;;;;;;4.10;2.50;;;;;;;21.63;61.08;98530.59;433589;1267;107537;-42
2022/07/27 16:12:29;;;;;;;3.70;2.90;;;;;;;21.98;60.68;98538.98;434115;1267;97455;-42
2022/07/27 16:22:43;;;;;;;3.70;2.60;;;;;;;22.10;60.08;98548.89;434299;1267;111178;-41
2022/07/27 16:32:51;;;;;;;5.70;3.00;;;;;;;22.16;58.53;98547.98;434399;1266;108876;-41
2022/07/27 16:42:57;;;;;;;8.20;3.70;;;;;;;21.93;58.06;98540.33;434132;1267;107482;-41
2022/07/27 16:53:04;;;;;;;5.00;2.90;;;;;;;21.80;58.00;98540.65;434300;1266;97881;-41
2022/07/27 17:03:12;;;;;;;4.00;3.10;;;;;;;21.62;57.88;98541.85;434448;1267;110344;-41
2022/07/27 17:13:19;;;;;;;4.50;3.60;;;;;;;21.29;57.95;98547.37;434224;1266;108830;-41
2022/07/27 17:23:32;;;;;;;4.50;3.60;;;;;;;21.06;58.03;98553.64;434376;1268;97752;-40
2022/07/27 17:33:39;;;;;;;9.20;3.70;;;;;;;20.91;58.34;98553.90;433690;1267;591635;-39
2022/07/27 17:43:46;;;;;;;7.40;5.00;;;;;;;20.86;58.28;98560.64;433936;1267;110659;-42
2022/07/27 17:53:53;;;;;;;7.30;3.60;;;;;;;20.64;57.85;98565.41;434214;1267;109652;-42
2022/07/27 18:04:00;;;;;;;6.30;2.90;;;;;;;20.45;57.49;98567.56;434119;1266;97898;-42
2022/07/27 18:14:08;;;;;;;11.60;5.40;;;;;;;20.32;57.63;98574.70;434087;1266;97901;-42
2022/07/27 18:34:23;;;;;;;6.40;1.60;;;;;;;19.57;56.80;98583.36;433733;1266;108511;-42
2022/07/27 18:44:29;;;;;;;7.30;2.70;;;;;;;19.26;56.69;98600.67;433915;1266;108775;-41
2022/07/27 19:14:56;;;;;;;9.90;4.10;;;;;;;18.66;57.90;98645.92;434040;1266;109347;-42
2022/07/27 19:25:06;;;;;;;11.60;2.60;;;;;;;18.58;58.16;98662.53;433685;1266;97799;-42
2022/07/27 19:35:14;;;;;;;2.70;1.60;;;;;;;18.51;58.41;98670.95;433983;1267;109973;-42
2022/07/27 19:45:20;;;;;;;;;;;;;;;18.28;58.50;98676.09;434267;1267;109077;-42
2022/07/27 19:55:26;;;;;;;5.50;2.40;;;;;;;18.05;58.46;98685.77;434187;1266;97910;-41
2022/07/27 20:05:32;;;;;;;6.20;2.40;;;;;;;17.75;58.84;98694.05;433984;1267;97480;-41
2022/07/27 20:15:39;;;;;;;8.90;4.00;;;;;;;17.49;59.28;98701.52;434164;1267;111200;-41
2022/07/27 20:25:45;;;;;;;4.70;2.80;;;;;;;17.13;59.76;98705.19;434208;1266;108348;-41
2022/07/27 20:35:52;;;;;;;5.40;3.10;;;;;;;17.08;60.64;98712.14;434058;1266;97465;-41
2022/07/27 20:45:59;;;;;;;5.10;3.80;;;;;;;16.97;61.04;98714.55;434004;1267;111127;-41
2022/07/27 20:56:06;;;;;;;7.10;3.90;;;;;;;16.88;61.62;98721.73;434320;1266;108896;-41
2022/07/27 21:16:20;;;;;;;9.30;3.70;;;;;;;16.72;62.68;98743.23;433987;1266;97347;-41
2022/07/27 21:26:27;;;;;;;8.30;3.50;;;;;;;16.48;62.81;98743.46;434031;1267;108972;-40
2022/07/27 21:36:36;;;;;;;13.00;4.20;;;;;;;16.43;63.42;98748.05;434225;1267;108772;-41
2022/07/27 21:46:44;;;;;;;7.00;3.90;;;;;;;16.38;63.87;98754.70;434132;1266;97872;-41
2022/07/27 21:56:50;;;;;;;8.30;3.70;;;;;;;16.46;63.93;98761.92;433889;1266;109775;-41
2022/07/27 22:06:57;;;;;;;10.70;3.80;;;;;;;16.41;63.96;98773.83;433788;1267;97887;-41
2022/07/27 22:17:04;;;;;;;6.10;3.30;;;;;;;16.33;64.20;98781.70;433462;1265;97788;-40
2022/07/27 22:27:11;;;;;;;6.20;2.90;;;;;;;16.13;64.18;98784.41;434132;1267;111097;-40
2022/07/27 22:37:18;;;;;;;7.00;2.70;;;;;;;16.03;64.15;98795.58;434055;1266;108802;-40
2022/07/27 22:47:26;;;;;;;6.10;3.30;;;;;;;15.92;64.18;98792.55;434283;1265;97872;-40
2022/07/27 22:57:33;;;;;;;7.80;3.80;;;;;;;15.68;64.42;98789.39;434169;1267;110695;-40
2022/07/27 23:07:40;;;;;;;6.40;3.20;;;;;;;15.48;64.59;98800.60;433712;1266;108797;-41
2022/07/27 23:17:48;;;;;;;6.60;3.40;;;;;;;15.32;64.87;98811.90;432906;1266;97890;-41
2022/07/27 23:27:56;;;;;;;8.40;3.60;;;;;;;15.15;65.34;98819.28;433876;1267;110946;-41
2022/07/27 23:38:03;;;;;;;7.90;4.00;;;;;;;14.94;65.65;98828.20;433929;1266;108499;-41
2022/07/27 23:48:10;;;;;;;6.90;3.90;;;;;;;14.71;65.87;98835.30;434177;1266;97898;-41
2022/07/27 23:58:17;;;;;;;5.90;3.20;;;;;;;14.68;66.22;98834.73;434123;1266;110387;-41
